createdAt,value
2023-03-26T00:00:09.808Z,99234.52
2023-03-26T00:02:21.083Z,99235.85
2023-03-26T00:04:13.152Z,99238.25
2023-03-26T00:06:09.128Z,99237.84
2023-03-26T00:08:00.511Z,99239.00
2023-03-26T00:09:52.382Z,99237.67
2023-03-26T00:11:46.447Z,99234.85
2023-03-26T00:13:38.950Z,99233.20
2023-03-26T00:15:30.487Z,99233.30
2023-03-26T00:17:22.114Z,99230.58
2023-03-26T00:19:14.019Z,99227.28
2023-03-26T00:21:06.516Z,99222.80
2023-03-26T00:23:01.675Z,99225.71
2023-03-26T00:24:53.330Z,99224.59
2023-03-26T00:26:45.021Z,99218.20
2023-03-26T00:28:38.402Z,99222.41
2023-03-26T00:30:30.161Z,99220.17
2023-03-26T00:32:22.814Z,99216.60
2023-03-26T00:34:18.626Z,99213.95
2023-03-26T00:36:14.867Z,99215.23
2023-03-26T00:38:06.965Z,99214.85
2023-03-26T00:40:04.711Z,99214.90
2023-03-26T00:41:56.342Z,99214.95
2023-03-26T00:43:49.291Z,99213.12
2023-03-26T00:45:41.176Z,99210.93
2023-03-26T00:47:33.908Z,99207.35
2023-03-26T00:49:30.737Z,99208.06
2023-03-26T00:51:22.481Z,99206.30
2023-03-26T00:53:15.460Z,99202.62
2023-03-26T00:55:07.616Z,99205.91
2023-03-26T00:56:59.268Z,99201.98
2023-03-26T00:58:51.092Z,99207.66
2023-03-26T01:00:53.332Z,99206.51
2023-03-26T01:02:45.688Z,99207.23
2023-03-26T01:04:37.640Z,99208.94
2023-03-26T01:06:36.723Z,99208.77
2023-03-26T01:08:34.078Z,99208.69
2023-03-26T01:10:25.976Z,99210.65
2023-03-26T01:12:22.353Z,99211.37
2023-03-26T01:14:21.680Z,99211.37
2023-03-26T01:16:27.148Z,99210.64
2023-03-26T01:18:21.794Z,99215.54
2023-03-26T01:20:19.591Z,99212.17
2023-03-26T01:22:19.291Z,99212.54
2023-03-26T01:24:10.998Z,99217.81
2023-03-26T01:26:12.670Z,99217.33
2023-03-26T01:28:08.863Z,99215.48
2023-03-26T01:30:21.456Z,99211.68
2023-03-26T01:32:24.992Z,99214.98
2023-03-26T01:34:37.444Z,99212.76
2023-03-26T01:37:17.718Z,99212.37
2023-03-26T01:39:19.814Z,99213.82
2023-03-26T01:41:21.364Z,99211.64
2023-03-26T01:43:30.084Z,99213.42
2023-03-26T01:45:26.786Z,99212.83
2023-03-26T01:47:18.945Z,99211.04
2023-03-26T01:49:13.246Z,99212.92
2023-03-26T01:51:06.347Z,99214.02
2023-03-26T01:52:58.111Z,99214.52
2023-03-26T01:54:50.315Z,99214.93
2023-03-26T01:56:57.076Z,99214.02
2023-03-26T01:59:01.126Z,99209.42
2023-03-26T02:01:16.945Z,99207.96
2023-03-26T02:03:18.037Z,99207.75
2023-03-26T02:05:17.750Z,99202.83
2023-03-26T02:07:15.157Z,99207.55
2023-03-26T02:09:10.114Z,99207.75
2023-03-26T02:11:11.733Z,99203.83
2023-03-26T02:13:03.830Z,99205.58
2023-03-26T02:14:55.559Z,99202.20
2023-03-26T02:16:48.043Z,99198.71
2023-03-26T02:18:41.954Z,99198.42
2023-03-26T02:20:33.523Z,99200.34
2023-03-26T02:22:30.168Z,99194.11
2023-03-26T02:24:21.774Z,99197.91
2023-03-26T02:26:17.236Z,99198.08
2023-03-26T02:28:09.104Z,99201.80
2023-03-26T02:30:01.151Z,99199.77
2023-03-26T02:31:52.870Z,99195.00
2023-03-26T02:33:44.810Z,99196.21
2023-03-26T02:35:36.424Z,99198.20
2023-03-26T02:37:30.597Z,99195.19
2023-03-26T02:39:22.246Z,99195.92
2023-03-26T02:41:14.451Z,99196.00
2023-03-26T02:43:06.450Z,99198.26
2023-03-26T02:44:58.153Z,99190.90
2023-03-26T02:46:49.827Z,99197.59
2023-03-26T02:48:41.653Z,99188.56
2023-03-26T02:50:36.987Z,99188.81
2023-03-26T02:52:28.839Z,99185.44
2023-03-26T02:54:20.645Z,99184.31
2023-03-26T02:56:12.713Z,99184.36
2023-03-26T02:58:04.439Z,99186.14
2023-03-26T02:59:55.773Z,99182.05
2023-03-26T03:01:47.803Z,99184.48
2023-03-26T03:03:39.682Z,99186.30
2023-03-26T03:05:32.669Z,99182.35
2023-03-26T03:07:26.225Z,99186.16
2023-03-26T03:09:17.495Z,99181.68
2023-03-26T03:11:12.151Z,99185.86
2023-03-26T03:13:06.010Z,99183.68
2023-03-26T03:14:57.408Z,99186.07
2023-03-26T03:16:49.135Z,99186.17
2023-03-26T03:18:40.634Z,99185.95
2023-03-26T03:20:35.317Z,99186.63
2023-03-26T03:22:27.139Z,99189.92
2023-03-26T03:24:18.708Z,99191.98
2023-03-26T03:26:16.359Z,99191.68
2023-03-26T03:28:08.811Z,99198.33
2023-03-26T03:30:00.827Z,99197.58
2023-03-26T03:31:52.774Z,99202.88
2023-03-26T03:33:46.258Z,99207.23
2023-03-26T03:35:38.449Z,99204.52
2023-03-26T03:37:30.192Z,99214.67
2023-03-26T03:39:21.855Z,99216.98
2023-03-26T03:41:13.754Z,99213.02
2023-03-26T03:43:05.663Z,99212.90
2023-03-26T03:44:57.444Z,99213.77
2023-03-26T03:46:54.112Z,99210.77
2023-03-26T03:48:50.030Z,99209.55
2023-03-26T03:50:42.090Z,99213.10
2023-03-26T03:52:33.715Z,99212.06
2023-03-26T03:54:25.900Z,99209.73
2023-03-26T03:56:19.319Z,99214.89
2023-03-26T03:58:12.108Z,99212.39
2023-03-26T04:00:06.741Z,99209.40
2023-03-26T04:01:58.502Z,99201.73
2023-03-26T04:03:50.785Z,99203.15
2023-03-26T04:05:43.850Z,99211.52
2023-03-26T04:07:35.762Z,99207.73
2023-03-26T04:09:27.291Z,99216.27
2023-03-26T04:11:19.182Z,99219.52
2023-03-26T04:13:12.523Z,99218.23
2023-03-26T04:15:04.597Z,99218.33
2023-03-26T04:16:56.210Z,99219.52
2023-03-26T04:18:48.056Z,99219.23
2023-03-26T04:20:46.890Z,99219.52
2023-03-26T04:22:39.524Z,99220.72
2023-03-26T04:24:38.411Z,99221.21
2023-03-26T04:26:31.066Z,99219.45
2023-03-26T04:28:34.027Z,99224.77
2023-03-26T04:30:25.558Z,99223.50
2023-03-26T04:32:26.835Z,99225.17
2023-03-26T04:34:24.399Z,99219.46
2023-03-26T04:36:16.880Z,99226.38
2023-03-26T04:38:10.875Z,99219.35
2023-03-26T04:40:10.960Z,99221.93
2023-03-26T04:42:02.827Z,99223.30
2023-03-26T04:43:55.459Z,99225.38
2023-03-26T04:45:48.104Z,99226.45
2023-03-26T04:47:40.004Z,99226.23
2023-03-26T04:49:31.955Z,99223.42
2023-03-26T04:51:27.212Z,99229.08
2023-03-26T04:53:21.447Z,99223.57
2023-03-26T04:55:21.730Z,99226.66
2023-03-26T04:57:24.181Z,99228.89
2023-03-26T04:59:19.712Z,99228.71
2023-03-26T05:01:11.637Z,99226.13
2023-03-26T05:03:03.235Z,99225.52
2023-03-26T05:04:57.270Z,99225.91
2023-03-26T05:06:49.178Z,99226.77
2023-03-26T05:08:42.008Z,99227.91
2023-03-26T05:10:33.730Z,99222.05
2023-03-26T05:12:25.576Z,99226.45
2023-03-26T05:14:18.056Z,99226.67
2023-03-26T05:16:11.245Z,99220.88
2023-03-26T05:18:02.944Z,99223.48
2023-03-26T05:19:54.486Z,99224.08
2023-03-26T05:21:46.359Z,99224.15
2023-03-26T05:23:38.027Z,99227.34
2023-03-26T05:25:29.868Z,99228.71
2023-03-26T05:27:21.948Z,99229.55
2023-03-26T05:29:14.994Z,99230.33
2023-03-26T05:31:08.264Z,99230.38
2023-03-26T05:32:59.930Z,99228.71
2023-03-26T05:34:51.739Z,99227.67
2023-03-26T05:36:44.116Z,99225.41
2023-03-26T05:38:36.101Z,99227.30
2023-03-26T05:40:27.746Z,99230.19
2023-03-26T05:42:19.714Z,99229.00
2023-03-26T05:44:11.665Z,99232.36
2023-03-26T05:46:03.942Z,99231.99
2023-03-26T05:47:56.705Z,99233.34
2023-03-26T05:49:48.282Z,99234.39
2023-03-26T05:51:39.485Z,99232.73
2023-03-26T05:53:32.232Z,99229.98
2023-03-26T05:55:23.846Z,99230.57
2023-03-26T05:57:15.670Z,99232.95
2023-03-26T05:59:08.110Z,99236.54
2023-03-26T06:01:11.023Z,99233.96
2023-03-26T06:03:02.754Z,99243.27
2023-03-26T06:04:54.720Z,99243.73
2023-03-26T06:06:46.999Z,99248.63
2023-03-26T06:08:39.528Z,99249.97
2023-03-26T06:10:31.536Z,99245.63
2023-03-26T06:12:23.556Z,99244.12
2023-03-26T06:14:15.454Z,99248.42
2023-03-26T06:16:09.139Z,99245.98
2023-03-26T06:18:18.867Z,99247.98
2023-03-26T06:20:11.312Z,99250.46
2023-03-26T06:22:03.184Z,99244.73
2023-03-26T06:23:55.748Z,99248.31
2023-03-26T06:25:47.921Z,99250.00
2023-03-26T06:27:39.394Z,99249.61
2023-03-26T06:29:31.435Z,99250.05
2023-03-26T06:31:23.281Z,99251.27
2023-03-26T06:33:15.522Z,99249.37
2023-03-26T06:35:07.495Z,99252.76
2023-03-26T06:36:59.315Z,99251.59
2023-03-26T06:38:50.806Z,99249.05
2023-03-26T06:40:42.695Z,99245.39
2023-03-26T06:43:07.946Z,99247.39
2023-03-26T06:44:46.279Z,99240.80
2023-03-26T06:46:39.134Z,99246.08
2023-03-26T06:48:31.072Z,99244.45
2023-03-26T06:50:22.597Z,99247.70
2023-03-26T06:52:14.466Z,99247.83
2023-03-26T06:54:06.794Z,99250.50
2023-03-26T06:55:58.676Z,99245.23
2023-03-26T06:57:51.504Z,99248.73
2023-03-26T06:59:43.110Z,99241.08
2023-03-26T07:01:35.013Z,99249.13
2023-03-26T07:03:26.875Z,99254.27
2023-03-26T07:05:18.676Z,99250.31
2023-03-26T07:07:10.505Z,99249.46
2023-03-26T07:09:02.330Z,99253.91
2023-03-26T07:10:54.482Z,99254.98
2023-03-26T07:12:46.508Z,99263.42
2023-03-26T07:14:38.844Z,99258.70
2023-03-26T07:16:30.934Z,99263.30
2023-03-26T07:18:22.738Z,99263.84
2023-03-26T07:20:26.004Z,99264.30
2023-03-26T07:22:23.559Z,99268.20
2023-03-26T07:24:16.917Z,99267.71
2023-03-26T07:26:33.558Z,99266.81
2023-03-26T07:28:43.740Z,99267.91
2023-03-26T07:31:27.644Z,99265.96
2023-03-26T07:33:36.611Z,99259.48
2023-03-26T07:35:41.190Z,99260.34
2023-03-26T07:37:47.815Z,99253.27
2023-03-26T07:39:57.922Z,99264.82
2023-03-26T07:41:49.613Z,99264.50
2023-03-26T07:44:12.084Z,99260.41
2023-03-26T07:46:04.255Z,99258.79
2023-03-26T07:47:57.098Z,99254.65
2023-03-26T07:49:49.285Z,99257.65
2023-03-26T07:51:41.518Z,99255.56
2023-03-26T07:53:33.557Z,99256.27
2023-03-26T07:55:25.642Z,99256.58
2023-03-26T07:57:39.024Z,99252.52
2023-03-26T07:59:53.495Z,99245.88
2023-03-26T08:01:51.744Z,99247.48
2023-03-26T08:03:51.127Z,99249.38
2023-03-26T08:06:06.020Z,99248.38
2023-03-26T08:08:08.693Z,99251.61
2023-03-26T08:10:22.167Z,99252.03
2023-03-26T08:12:43.043Z,99248.86
2023-03-26T08:15:01.955Z,99245.34
2023-03-26T08:17:02.516Z,99244.94
2023-03-26T08:19:08.087Z,99242.38
2023-03-26T08:21:08.167Z,99240.25
2023-03-26T08:23:09.557Z,99239.77
2023-03-26T08:25:27.692Z,99236.17
2023-03-26T08:27:38.442Z,99235.09
2023-03-26T08:29:45.357Z,99237.32
2023-03-26T08:31:40.584Z,99231.16
2023-03-26T08:33:32.614Z,99228.63
2023-03-26T08:35:25.580Z,99227.91
2023-03-26T08:37:17.494Z,99230.41
2023-03-26T08:39:09.464Z,99229.05
2023-03-26T08:41:14.940Z,99227.50
2023-03-26T08:43:22.909Z,99221.98
2023-03-26T08:45:44.176Z,99216.95
2023-03-26T08:47:48.648Z,99216.09
2023-03-26T08:49:51.547Z,99212.98
2023-03-26T08:52:24.624Z,99213.59
2023-03-26T08:54:25.666Z,99210.20
2023-03-26T08:56:33.085Z,99209.44
2023-03-26T08:59:02.121Z,99208.59
2023-03-26T09:01:12.414Z,99201.39
2023-03-26T09:03:32.118Z,99202.48
2023-03-26T09:05:50.975Z,99204.25
2023-03-26T09:08:24.100Z,99201.88
2023-03-26T09:10:30.896Z,99207.16
2023-03-26T09:12:47.176Z,99225.99
2023-03-26T09:18:17.595Z,99237.38
2023-03-26T09:20:33.213Z,99225.38
2023-03-26T09:22:45.693Z,99226.50
2023-03-26T09:25:22.131Z,99231.31
2023-03-26T09:27:47.100Z,99226.69
2023-03-26T09:30:14.177Z,99228.79
2023-03-26T09:32:27.467Z,99219.80
2023-03-26T09:34:28.334Z,99221.60
2023-03-26T09:36:27.395Z,99217.62
2023-03-26T09:38:40.554Z,99212.81
2023-03-26T09:40:38.848Z,99211.07
2023-03-26T09:42:42.306Z,99212.70
2023-03-26T09:44:51.750Z,99212.10
2023-03-26T09:47:14.327Z,99206.67
2023-03-26T09:49:22.895Z,99208.98
2023-03-26T09:51:41.737Z,99213.64
2023-03-26T09:54:06.970Z,99213.60
2023-03-26T09:56:16.718Z,99212.45
2023-03-26T09:58:11.645Z,99208.35
2023-03-26T10:00:41.449Z,99212.11
2023-03-26T10:02:45.520Z,99215.73
2023-03-26T10:04:45.099Z,99213.93
2023-03-26T10:06:58.147Z,99212.55
2023-03-26T10:08:58.356Z,99208.98
2023-03-26T10:10:54.840Z,99203.52
2023-03-26T10:12:51.140Z,99201.91
2023-03-26T10:15:11.957Z,99200.00
2023-03-26T10:17:05.136Z,99193.43
2023-03-26T10:19:18.915Z,99196.20
2023-03-26T10:21:48.420Z,99193.39
2023-03-26T10:23:58.334Z,99194.91
2023-03-26T10:26:08.517Z,99198.57
2023-03-26T10:28:08.797Z,99188.14
2023-03-26T10:30:20.651Z,99192.17
2023-03-26T10:32:44.473Z,99188.88
2023-03-26T10:34:51.866Z,99183.23
2023-03-26T10:37:05.955Z,99179.96
2023-03-26T10:39:42.406Z,99180.12
2023-03-26T10:41:59.401Z,99179.52
2023-03-26T10:44:01.268Z,99175.16
2023-03-26T10:46:26.771Z,99177.70
2023-03-26T10:48:33.063Z,99189.56
2023-03-26T10:50:50.575Z,99183.52
2023-03-26T10:52:59.849Z,99184.48
2023-03-26T10:55:27.524Z,99182.61
2023-03-26T10:57:36.557Z,99184.17
2023-03-26T10:59:29.113Z,99178.66
2023-03-26T11:01:32.853Z,99176.82
2023-03-26T11:03:41.828Z,99173.95
2023-03-26T11:05:47.114Z,99170.41
2023-03-26T11:07:51.886Z,99165.47
2023-03-26T11:09:54.503Z,99160.76
2023-03-26T11:12:26.494Z,99155.00
2023-03-26T11:15:02.770Z,99164.98
2023-03-26T11:17:02.444Z,99156.84
2023-03-26T11:19:05.069Z,99155.80
2023-03-26T11:21:19.090Z,99157.23
2023-03-26T11:23:27.000Z,99156.21
2023-03-26T11:25:41.942Z,99157.48
2023-03-26T11:27:51.799Z,99158.49
2023-03-26T11:29:56.781Z,99159.95
2023-03-26T11:32:15.793Z,99153.85
2023-03-26T11:34:19.513Z,99163.34
2023-03-26T11:36:16.718Z,99160.85
2023-03-26T11:38:17.394Z,99165.77
2023-03-26T11:40:19.166Z,99159.55
2023-03-26T11:42:14.452Z,99159.08
2023-03-26T11:44:18.998Z,99159.52
2023-03-26T11:46:13.379Z,99156.33
2023-03-26T11:48:30.622Z,99152.91
2023-03-26T11:50:27.183Z,99159.42
2023-03-26T11:52:18.928Z,99151.27
2023-03-26T11:54:12.565Z,99154.33
2023-03-26T11:56:18.823Z,99151.84
2023-03-26T11:58:23.484Z,99154.54
2023-03-26T12:00:21.324Z,99151.83
2023-03-26T12:02:12.849Z,99134.47
2023-03-26T12:04:08.119Z,99146.73
2023-03-26T12:06:02.866Z,99150.96
2023-03-26T12:07:59.233Z,99146.77
2023-03-26T12:09:54.566Z,99143.00
2023-03-26T12:11:48.213Z,99140.11
2023-03-26T12:13:43.941Z,99134.27
2023-03-26T12:15:43.189Z,99131.49
2023-03-26T12:17:37.363Z,99128.08
2023-03-26T12:19:36.491Z,99121.43
2023-03-26T12:21:28.190Z,99124.55
2023-03-26T12:23:51.070Z,99123.52
2023-03-26T12:25:43.735Z,99120.63
2023-03-26T12:27:38.069Z,99111.61
2023-03-26T12:29:34.490Z,99115.86
2023-03-26T12:31:26.611Z,99116.41
2023-03-26T12:33:35.286Z,99119.39
2023-03-26T12:35:30.310Z,99112.39
2023-03-26T12:37:37.104Z,99110.96
2023-03-26T12:40:10.485Z,99105.49
2023-03-26T12:44:44.186Z,99106.92
2023-03-26T12:44:52.813Z,99102.27
2023-03-26T12:47:54.171Z,99098.23
2023-03-26T12:49:03.401Z,99096.48
2023-03-26T12:51:19.641Z,99096.12
2023-03-26T12:53:26.728Z,99091.59
2023-03-26T12:55:37.873Z,99092.91
2023-03-26T12:57:39.137Z,99089.35
2023-03-26T12:59:46.983Z,99081.61
2023-03-26T13:01:45.939Z,99073.16
2023-03-26T13:03:50.622Z,99070.80
2023-03-26T13:05:59.588Z,99064.92
2023-03-26T13:08:05.579Z,99061.98
2023-03-26T13:10:12.670Z,99061.27
2023-03-26T13:12:07.161Z,99059.39
2023-03-26T13:14:07.901Z,99059.79
2023-03-26T13:16:04.763Z,99063.20
2023-03-26T13:18:18.564Z,99059.94
2023-03-26T13:20:27.884Z,99055.19
2023-03-26T13:22:51.111Z,99055.54
2023-03-26T13:24:54.798Z,99051.52
2023-03-26T13:27:08.342Z,99050.39
2023-03-26T13:29:23.659Z,99055.63
2023-03-26T13:31:15.634Z,99059.58
2023-03-26T13:33:28.190Z,99054.77
2023-03-26T13:36:00.688Z,99052.84
2023-03-26T13:38:26.316Z,99055.85
2023-03-26T13:40:50.158Z,99056.66
2023-03-26T13:42:57.942Z,99057.84
2023-03-26T13:45:04.682Z,99055.42
2023-03-26T13:47:05.143Z,99050.05
2023-03-26T13:49:13.789Z,99051.95
2023-03-26T13:51:12.620Z,99051.96
2023-03-26T13:53:19.453Z,99049.48
2023-03-26T13:55:37.506Z,99049.14
2023-03-26T13:57:35.521Z,99047.28
2023-03-26T13:59:31.636Z,99046.17
2023-03-26T14:01:34.810Z,99043.88
2023-03-26T14:03:57.395Z,99044.95
2023-03-26T14:05:52.696Z,99043.48
2023-03-26T14:07:50.802Z,99043.14
2023-03-26T14:10:10.827Z,99041.80
2023-03-26T14:12:21.217Z,99038.90
2023-03-26T14:14:18.383Z,99040.58
2023-03-26T14:16:42.374Z,99037.04
2023-03-26T14:18:43.529Z,99035.55
2023-03-26T14:21:10.327Z,99034.67
2023-03-26T14:23:35.083Z,99034.35
2023-03-26T14:26:08.274Z,99028.06
2023-03-26T14:28:48.485Z,99024.70
2023-03-26T14:31:00.972Z,99021.59
2023-03-26T14:33:12.784Z,99019.83
2023-03-26T14:35:15.560Z,99019.00
2023-03-26T14:37:18.969Z,99019.31
2023-03-26T14:39:37.611Z,99022.17
2023-03-26T14:42:02.865Z,99018.50
2023-03-26T14:44:21.834Z,99020.71
2023-03-26T14:46:39.080Z,99020.15
2023-03-26T14:48:42.916Z,99017.98
2023-03-26T14:50:42.829Z,99018.95
2023-03-26T14:52:43.355Z,99013.61
2023-03-26T14:54:39.171Z,99017.61
2023-03-26T14:56:53.689Z,99012.81
2023-03-26T14:59:21.672Z,99019.14
2023-03-26T15:01:26.193Z,99011.78
2023-03-26T15:03:40.198Z,99014.02
2023-03-26T15:05:57.601Z,99017.48
2023-03-26T15:08:09.073Z,99009.86
2023-03-26T15:10:25.974Z,99011.03
2023-03-26T15:12:29.955Z,99004.26
2023-03-26T15:14:40.310Z,99007.18
2023-03-26T15:16:45.629Z,99004.77
2023-03-26T15:18:59.587Z,99004.02
2023-03-26T15:21:06.889Z,99007.61
2023-03-26T15:23:49.134Z,99003.48
2023-03-26T15:25:51.564Z,99005.09
2023-03-26T15:27:52.130Z,99001.52
2023-03-26T15:29:58.998Z,98999.55
2023-03-26T15:32:15.332Z,99000.36
2023-03-26T15:34:13.257Z,99003.35
2023-03-26T15:36:37.149Z,99001.04
2023-03-26T15:38:43.324Z,99007.02
2023-03-26T15:40:58.059Z,99014.88
2023-03-26T15:42:58.574Z,99015.62
2023-03-26T15:45:22.493Z,99015.89
2023-03-26T15:47:29.253Z,99015.13
2023-03-26T15:49:33.418Z,99008.65
2023-03-26T15:51:46.524Z,99008.11
2023-03-26T15:53:48.985Z,99011.71
2023-03-26T15:56:04.062Z,99006.77
2023-03-26T15:58:23.699Z,99004.03
2023-03-26T16:00:26.629Z,99000.35
2023-03-26T16:02:27.873Z,99015.60
2023-03-26T16:04:50.704Z,98983.16
2023-03-26T16:06:57.596Z,98991.96
2023-03-26T16:09:03.456Z,98986.34
2023-03-26T16:10:59.501Z,98966.48
2023-03-26T16:13:14.052Z,98971.73
2023-03-26T16:15:25.098Z,98977.54
2023-03-26T16:17:20.741Z,98977.77
2023-03-26T16:19:23.693Z,98978.84
2023-03-26T16:21:31.723Z,98973.77
2023-03-26T16:23:28.751Z,98976.98
2023-03-26T16:25:34.784Z,98976.60
2023-03-26T16:27:29.966Z,98974.86
2023-03-26T16:29:26.941Z,98969.90
2023-03-26T16:31:38.322Z,98964.27
2023-03-26T16:33:44.771Z,98961.60
2023-03-26T16:36:06.585Z,98964.02
2023-03-26T16:38:15.016Z,98964.19
2023-03-26T16:40:22.599Z,98958.92
2023-03-26T16:42:35.020Z,98959.30
2023-03-26T16:44:41.451Z,98964.30
2023-03-26T16:47:08.364Z,98962.49
2023-03-26T16:49:06.055Z,98966.42
2023-03-26T16:51:09.880Z,98967.35
2023-03-26T16:53:21.153Z,98968.42
2023-03-26T16:55:15.512Z,98967.92
2023-03-26T16:57:29.416Z,98972.55
2023-03-26T16:59:43.093Z,98971.30
2023-03-26T17:02:13.828Z,98966.27
2023-03-26T17:04:12.991Z,98965.95
2023-03-26T17:06:31.890Z,98962.16
2023-03-26T17:08:35.570Z,98959.69
2023-03-26T17:10:36.473Z,98958.21
2023-03-26T17:15:06.047Z,98955.63
2023-03-26T17:17:19.103Z,98957.52
2023-03-26T17:19:22.651Z,98954.27
2023-03-26T17:21:19.355Z,98959.30
2023-03-26T17:23:28.627Z,98957.39
2023-03-26T17:25:25.945Z,98957.87
2023-03-26T17:27:28.328Z,98957.94
2023-03-26T17:29:43.450Z,98962.37
2023-03-26T17:31:56.901Z,98959.69
2023-03-26T17:33:49.907Z,98962.91
2023-03-26T17:35:47.206Z,98965.76
2023-03-26T17:37:47.835Z,98969.55
2023-03-26T17:39:39.610Z,98974.63
2023-03-26T17:42:15.734Z,98976.63
2023-03-26T17:44:42.279Z,98977.13
2023-03-26T17:46:39.135Z,98981.08
2023-03-26T17:48:35.571Z,98981.15
2023-03-26T17:50:52.138Z,98981.20
2023-03-26T17:53:02.084Z,98981.21
2023-03-26T17:54:56.970Z,98986.72
2023-03-26T17:56:50.515Z,98987.91
2023-03-26T17:58:48.278Z,98991.36
2023-03-26T18:00:45.885Z,98988.48
2023-03-26T18:02:44.042Z,98992.29
2023-03-26T18:04:40.494Z,98994.76
2023-03-26T18:07:00.447Z,98991.69
2023-03-26T18:09:12.839Z,98992.68
2023-03-26T18:11:15.733Z,98989.50
2023-03-26T18:13:07.296Z,98989.77
2023-03-26T18:15:20.613Z,98991.55
2023-03-26T18:17:12.567Z,98990.64
2023-03-26T18:19:17.721Z,98987.02
2023-03-26T18:21:15.575Z,98986.45
2023-03-26T18:23:23.384Z,98988.71
2023-03-26T18:25:27.321Z,98986.99
2023-03-26T18:27:21.420Z,98981.45
2023-03-26T18:29:23.985Z,98983.95
2023-03-26T18:31:23.266Z,98984.27
2023-03-26T18:33:16.304Z,98981.13
2023-03-26T18:35:18.905Z,98980.13
2023-03-26T18:37:34.318Z,98975.15
2023-03-26T18:39:25.631Z,98975.36
2023-03-26T18:41:32.354Z,98970.58
2023-03-26T18:43:34.396Z,98976.10
2023-03-26T18:45:35.175Z,98971.47
2023-03-26T18:47:28.038Z,98970.38
2023-03-26T18:49:20.619Z,98970.57
2023-03-26T18:51:12.755Z,98967.48
2023-03-26T18:53:07.511Z,98966.88
2023-03-26T18:55:02.433Z,98964.36
2023-03-26T18:56:59.449Z,98969.63
2023-03-26T18:58:52.938Z,98965.65
2023-03-26T19:00:44.677Z,98969.61
2023-03-26T19:02:37.364Z,98967.88
2023-03-26T19:04:33.391Z,98968.61
2023-03-26T19:06:26.061Z,98960.66
2023-03-26T19:08:18.158Z,98955.40
2023-03-26T19:10:16.543Z,98957.07
2023-03-26T19:12:16.650Z,98950.35
2023-03-26T19:14:18.243Z,98953.98
2023-03-26T19:16:22.569Z,98951.07
2023-03-26T19:18:19.667Z,98953.45
2023-03-26T19:20:17.235Z,98955.06
2023-03-26T19:22:11.470Z,98950.13
2023-03-26T19:24:04.234Z,98948.11
2023-03-26T19:25:56.359Z,98947.77
2023-03-26T19:27:50.370Z,98947.20
2023-03-26T19:29:43.488Z,98947.86
2023-03-26T19:31:36.202Z,98947.50
2023-03-26T19:33:34.352Z,98945.41
2023-03-26T19:35:26.276Z,98944.39
2023-03-26T19:37:19.820Z,98946.40
2023-03-26T19:39:12.899Z,98947.92
2023-03-26T19:41:05.092Z,98945.20
2023-03-26T19:42:59.681Z,98944.93
2023-03-26T19:44:52.252Z,98944.27
2023-03-26T19:51:25.832Z,98937.30
2023-03-26T19:53:25.476Z,98939.69
2023-03-26T19:55:24.196Z,98937.77
2023-03-26T19:57:16.261Z,98936.15
2023-03-26T19:59:08.187Z,98935.99
2023-03-26T20:01:00.007Z,98939.02
2023-03-26T20:02:51.515Z,98936.31
2023-03-26T20:04:43.249Z,98935.52
2023-03-26T20:06:43.318Z,98931.73
2023-03-26T20:08:36.034Z,98931.63
2023-03-26T20:10:28.038Z,98928.33
2023-03-26T20:12:19.838Z,98924.08
2023-03-26T20:14:21.562Z,98926.40
2023-03-26T20:16:33.907Z,98922.30
2023-03-26T20:18:25.711Z,98920.81
2023-03-26T20:20:19.839Z,98921.25
2023-03-26T20:22:16.113Z,98918.13
2023-03-26T20:24:17.802Z,98917.98
2023-03-26T20:26:15.354Z,98912.96
2023-03-26T20:28:13.906Z,98918.39
2023-03-26T20:30:07.024Z,98911.50
2023-03-26T20:31:59.215Z,98907.94
2023-03-26T20:33:56.494Z,98906.65
2023-03-26T20:35:48.513Z,98902.73
2023-03-26T20:37:40.035Z,98903.59
2023-03-26T20:39:31.551Z,98902.17
2023-03-26T20:41:24.222Z,98901.96
2023-03-26T20:43:18.551Z,98903.17
2023-03-26T20:45:20.153Z,98900.86
2023-03-26T20:47:12.707Z,98897.17
2023-03-26T20:49:06.661Z,98893.52
2023-03-26T20:50:58.576Z,98893.22
2023-03-26T20:52:50.520Z,98894.96
2023-03-26T20:54:42.477Z,98886.35
2023-03-26T20:56:37.717Z,98885.95
2023-03-26T20:58:31.170Z,98882.14
2023-03-26T21:00:24.371Z,98877.20
2023-03-26T21:02:16.266Z,98882.02
2023-03-26T21:04:07.760Z,98877.66
2023-03-26T21:06:01.489Z,98877.06
2023-03-26T21:07:58.393Z,98874.20
2023-03-26T21:09:50.320Z,98876.59
2023-03-26T21:12:02.541Z,98876.55
2023-03-26T21:14:02.171Z,98876.40
2023-03-26T21:15:54.687Z,98881.07
2023-03-26T21:17:46.709Z,98884.27
2023-03-26T21:19:39.380Z,98890.41
2023-03-26T21:21:49.444Z,98896.78
2023-03-26T21:23:46.821Z,98899.11
2023-03-26T21:26:02.870Z,98902.79
2023-03-26T21:28:14.695Z,98900.80
2023-03-26T21:30:30.893Z,98895.49
2023-03-26T21:32:23.465Z,98892.58
2023-03-26T21:34:15.259Z,98889.16
2023-03-26T21:36:07.659Z,98884.14
2023-03-26T21:37:59.732Z,98878.95
2023-03-26T21:39:51.562Z,98877.61
2023-03-26T21:41:47.821Z,98872.90
2023-03-26T21:43:39.588Z,98869.80
2023-03-26T21:45:31.620Z,98874.02
2023-03-26T21:47:23.704Z,98870.90
2023-03-26T21:49:17.362Z,98876.72
2023-03-26T21:51:14.891Z,98871.44
2023-03-26T21:53:06.858Z,98862.83
2023-03-26T21:55:00.855Z,98860.30
2023-03-26T21:57:29.180Z,98859.91
2023-03-26T21:59:51.747Z,98866.29
2023-03-26T22:02:00.519Z,98870.61
2023-03-26T22:04:16.622Z,98872.98
2023-03-26T22:06:16.270Z,98867.95
2023-03-26T22:08:21.959Z,98865.70
2023-03-26T22:10:13.533Z,98860.55
2023-03-26T22:12:05.888Z,98864.42
2023-03-26T22:13:57.659Z,98866.08
2023-03-26T22:15:49.466Z,98875.36
2023-03-26T22:17:42.141Z,98877.86
2023-03-26T22:19:34.784Z,98875.04
2023-03-26T22:21:26.642Z,98874.34
2023-03-26T22:23:18.900Z,98878.98
2023-03-26T22:25:10.707Z,98879.95
2023-03-26T22:27:02.566Z,98873.05
2023-03-26T22:28:54.734Z,98873.70
2023-03-26T22:30:46.718Z,98877.11
2023-03-26T22:32:39.074Z,98879.27
2023-03-26T22:34:31.825Z,98878.11
2023-03-26T22:36:25.419Z,98877.69
2023-03-26T22:38:17.964Z,98875.40
2023-03-26T22:40:16.242Z,98877.27
2023-03-26T22:42:08.099Z,98876.73
2023-03-26T22:44:09.433Z,98878.02
2023-03-26T22:46:06.569Z,98878.05
2023-03-26T22:48:03.812Z,98879.88
2023-03-26T22:49:57.352Z,98884.77
2023-03-26T22:51:50.495Z,98883.03
2023-03-26T22:53:41.964Z,98887.70
2023-03-26T22:55:33.644Z,98879.88
2023-03-26T22:57:25.846Z,98881.59
2023-03-26T22:59:17.853Z,98882.29
2023-03-26T23:01:17.705Z,98883.38
2023-03-26T23:03:09.277Z,98884.29
2023-03-26T23:05:01.374Z,98882.55
2023-03-26T23:06:54.228Z,98882.20
2023-03-26T23:08:46.353Z,98880.34
2023-03-26T23:10:42.653Z,98874.48
2023-03-26T23:12:34.221Z,98872.83
2023-03-26T23:14:26.222Z,98870.16
2023-03-26T23:16:18.049Z,98866.56
2023-03-26T23:18:09.473Z,98870.34
2023-03-26T23:20:06.187Z,98874.70
2023-03-26T23:21:57.759Z,98869.80
2023-03-26T23:23:51.749Z,98871.75
2023-03-26T23:25:45.643Z,98877.08
2023-03-26T23:27:37.860Z,98871.50
2023-03-26T23:29:30.205Z,98872.58
2023-03-26T23:31:21.988Z,98868.77
2023-03-26T23:33:13.613Z,98869.13
2023-03-26T23:35:05.371Z,98877.94
2023-03-26T23:36:58.094Z,98875.34
2023-03-26T23:38:51.535Z,98875.98
2023-03-26T23:40:44.696Z,98879.73
2023-03-26T23:42:49.614Z,98881.46
2023-03-26T23:44:41.258Z,98888.79
2023-03-26T23:46:35.421Z,98892.90